Time;durP1;ratioP1;P1;durP2;ratioP2;P2;SDS_P1;SDS_P2;PMS_P1;PMS_P2;Temp;Humidity;BMP_temperature;BMP_pressure;BME280_temperature;BME280_humidity;BME280_pressure;Samples;Min_cycle;Max_cycle;Signal;HPM_P1;HPM_P2
2022/05/22 00:01:39;;;;;;;;;3.33;3.00;;;;;36.38;21.06;101211.16;4916877;28;45423;-82
2022/05/22 00:04:04;;;;;;;;;3.00;3.00;;;;;36.15;20.87;101206.66;4916604;28;45713;-82
2022/05/22 00:06:30;;;;;;;;;5.00;5.00;;;;;36.24;21.38;101233.50;4915440;28;45452;-82
2022/05/22 00:08:55;;;;;;;;;4.67;4.33;;;;;36.45;21.28;101271.44;4915262;28;45560;-82
2022/05/22 00:11:22;;;;;;;;;5.00;4.00;;;;;36.30;21.74;101260.66;4916193;28;45447;-83
2022/05/22 00:13:48;;;;;;;;;5.00;4.00;;;;;36.13;21.30;101215.03;4916556;28;46621;-82
2022/05/22 00:18:57;;;;;;;;;4.33;4.33;;;;;36.12;21.42;101226.22;4916513;28;45518;-83
2022/05/22 00:21:23;;;;;;;;;4.00;3.00;;;;;35.86;21.47;101180.41;4915491;28;45484;-83
2022/05/22 00:23:48;;;;;;;;;5.33;4.00;;;;;36.22;21.76;101239.16;4916408;28;46537;-83
2022/05/22 00:26:14;;;;;;;;;5.00;4.00;;;;;35.83;21.69;101208.25;4916180;28;45412;-83
2022/05/22 00:28:39;;;;;;;;;3.00;3.00;;;;;36.00;21.75;101214.31;4915167;28;45404;-82
2022/05/22 00:31:04;;;;;;;;;4.00;4.00;;;;;36.13;21.33;101225.22;4915019;28;45290;-83
2022/05/22 00:33:30;;;;;;;;;4.33;4.00;;;;;35.91;21.40;101199.38;4915073;28;47304;-83
2022/05/22 00:35:55;;;;;;;;;6.00;4.00;;;;;36.32;21.39;101266.94;4915999;28;50474;-83
2022/05/22 00:38:21;;;;;;;;;4.00;4.00;;;;;36.00;22.11;101220.69;4915192;28;45322;-83
2022/05/22 00:40:46;;;;;;;;;4.33;4.33;;;;;35.81;21.88;101199.25;4915956;28;45539;-83
2022/05/22 00:43:28;;;;;;;;;3.33;3.33;;;;;36.12;21.71;101257.50;4914857;28;46895;-83
2022/05/22 00:45:55;;;;;;;;;3.33;3.33;;;;;35.67;21.99;101202.22;4916122;28;45439;-83
2022/05/22 00:48:20;;;;;;;;;5.33;5.00;;;;;35.99;21.82;101259.47;4915061;28;45409;-83
2022/05/22 00:50:46;;;;;;;;;4.00;4.00;;;;;35.69;21.87;101198.31;4914529;28;45581;-83
2022/05/22 00:53:12;;;;;;;;;5.00;4.00;;;;;35.91;21.63;101215.03;4914726;28;46071;-83
2022/05/22 00:55:38;;;;;;;;;3.33;3.33;;;;;35.82;21.95;101181.66;4914757;28;45434;-83
2022/05/22 00:58:27;;;;;;;;;4.33;4.00;;;;;36.32;21.48;101230.16;4915978;28;45491;-83
2022/05/22 01:00:52;;;;;;;;;2.67;2.67;;;;;36.18;21.50;101215.53;4916013;28;45321;-83
2022/05/22 01:03:28;;;;;;;;;4.00;3.00;;;;;36.04;21.27;101161.44;4914674;28;46232;-82
2022/05/22 01:05:57;;;;;;;;;4.00;4.00;;;;;36.27;21.34;101200.09;4915899;28;45540;-83
2022/05/22 01:08:23;;;;;;;;;3.00;3.00;;;;;36.39;21.40;101221.19;4916117;28;45477;-82
2022/05/22 01:10:53;;;;;;;;;4.00;4.00;;;;;36.10;21.44;101173.00;4915634;28;45369;-83
2022/05/22 01:13:24;;;;;;;;;4.00;4.00;;;;;36.22;21.45;101208.75;4915835;28;45524;-83
2022/05/22 01:15:49;;;;;;;;;4.00;4.00;;;;;35.87;21.30;101173.00;4916002;28;45369;-83
2022/05/22 01:18:15;;;;;;;;;5.00;4.00;;;;;36.05;21.31;101204.63;4916020;28;45367;-83
2022/05/22 01:20:49;;;;;;;;;4.00;4.00;;;;;35.79;22.29;101170.81;4916052;28;45333;-83
2022/05/22 01:23:16;;;;;;;;;3.00;3.00;;;;;35.95;21.66;101199.97;4914330;28;47342;-83
2022/05/22 01:25:41;;;;;;;;;3.33;3.33;;;;;35.71;21.67;101149.38;4915952;28;45313;-83
2022/05/22 01:28:09;;;;;;;;;6.00;4.00;;;;;35.95;21.57;101200.88;4912967;28;45468;-83
2022/05/22 01:30:34;;;;;;;;;5.00;5.00;;;;;35.55;21.86;101138.69;4915743;28;45376;-83
2022/05/22 01:33:00;;;;;;;;;5.00;5.00;;;;;35.51;22.19;101134.47;4915544;28;46407;-83
2022/05/22 01:35:28;;;;;;;;;7.00;4.67;;;;;35.66;22.20;101168.19;4914483;28;45651;-83
2022/05/22 01:37:55;;;;;;;;;5.00;5.00;;;;;35.39;22.06;101146.47;4915257;28;45476;-83
2022/05/22 01:40:21;;;;;;;;;4.00;4.00;;;;;35.25;22.14;101108.03;4914270;28;45385;-83
2022/05/22 01:42:47;;;;;;;;;5.33;3.67;;;;;35.47;22.18;101145.84;4915315;28;46478;-83
2022/05/22 01:45:19;;;;;;;;;5.33;5.00;;;;;35.39;22.30;101146.47;4914140;28;46261;-83
2022/05/22 01:47:45;;;;;;;;;4.33;4.00;;;;;35.49;22.34;101155.75;4914416;28;45472;-83
2022/05/22 01:50:11;;;;;;;;;5.00;5.00;;;;;35.48;22.18;101142.97;4915235;28;45701;-83
2022/05/22 01:52:37;;;;;;;;;6.00;5.00;;;;;35.31;22.27;101141.56;4913333;28;48116;-83
2022/05/22 01:55:04;;;;;;;;;5.00;5.00;;;;;35.44;22.73;101174.56;4915240;28;45451;-83
2022/05/22 01:57:30;;;;;;;;;4.00;4.00;;;;;35.09;22.53;101131.31;4915600;28;45227;-83
2022/05/22 01:59:56;;;;;;;;;3.00;3.00;;;;;35.36;22.41;101180.69;4915268;28;45392;-83
2022/05/22 02:02:21;;;;;;;;;4.00;4.00;;;;;35.27;22.23;101147.41;4915189;28;45549;-83
2022/05/22 02:04:47;;;;;;;;;4.00;4.00;;;;;35.22;22.57;101154.19;4915088;28;45447;-83
2022/05/22 02:09:56;;;;;;;;;5.00;5.00;;;;;35.10;22.60;101137.72;4915128;28;45400;-83
2022/05/22 02:12:22;;;;;;;;;5.33;4.67;;;;;34.95;22.87;101128.78;4914905;28;46383;-83
2022/05/22 02:14:47;;;;;;;;;4.00;4.00;;;;;34.91;22.63;101110.72;4914879;28;45423;-83
2022/05/22 02:17:12;;;;;;;;;4.33;4.33;;;;;35.01;22.91;101150.38;4913970;28;45365;-83
2022/05/22 02:19:38;;;;;;;;;5.00;3.67;;;;;34.79;22.86;101118.06;4915029;28;45377;-83
2022/05/22 02:22:03;;;;;;;;;4.00;4.00;;;;;35.00;22.57;101127.41;4913206;28;47462;-83
2022/05/22 02:24:29;;;;;;;;;3.00;2.00;;;;;35.02;22.83;101119.00;4915035;28;45394;-83
2022/05/22 02:26:54;;;;;;;;;4.00;4.00;;;;;35.07;22.98;101155.38;4913394;28;45359;-83
2022/05/22 02:29:19;;;;;;;;;2.00;2.00;;;;;34.91;23.02;101138.28;4913753;28;45586;-83
2022/05/22 02:31:45;;;;;;;;;5.33;4.33;;;;;34.97;22.54;101137.81;4913414;28;46992;-83
2022/05/22 02:34:10;;;;;;;;;5.00;4.33;;;;;35.21;22.79;101171.72;4913330;28;46767;-84
2022/05/22 02:36:35;;;;;;;;;5.00;4.00;;;;;34.88;22.92;101144.91;4913348;28;45557;-82
2022/05/22 02:39:01;;;;;;;;;5.00;5.00;;;;;34.66;22.80;101109.84;4914148;28;50011;-83
2022/05/22 02:41:26;;;;;;;;;4.00;4.00;;;;;34.86;22.94;101149.69;4917619;28;45471;-82
2022/05/22 02:43:52;;;;;;;;;6.00;6.00;;;;;34.59;22.96;101111.34;4917616;28;45361;-82
2022/05/22 02:46:19;;;;;;;;;4.67;4.67;;;;;34.98;22.65;101178.16;4917816;28;45452;-82
2022/05/22 02:48:46;;;;;;;;;4.33;4.33;;;;;35.04;22.33;101167.53;4916480;28;45326;-82
2022/05/22 02:51:14;;;;;;;;;5.00;3.67;;;;;35.08;22.68;101183.84;4915530;28;47414;-82
2022/05/22 02:53:39;;;;;;;;;6.67;6.00;;;;;34.98;22.98;101161.63;4916329;28;45480;-82
2022/05/22 02:56:15;;;;;;;;;6.33;5.33;;;;;35.04;22.88;101197.00;4916272;28;45482;-82
2022/05/22 02:58:40;;;;;;;;;4.00;4.00;;;;;34.82;22.96;101162.81;4917672;28;45343;-82
2022/05/22 03:01:06;;;;;;;;;5.00;5.00;;;;;35.06;23.03;101202.38;4915910;28;47988;-82
2022/05/22 03:03:32;;;;;;;;;5.00;5.00;;;;;34.32;23.15;101087.66;4916234;28;45679;-82
2022/05/22 03:08:42;;;;;;;;;3.33;3.33;;;;;35.04;22.95;101211.66;4917431;28;45237;-82
2022/05/22 03:11:07;;;;;;;;;5.00;4.00;;;;;35.14;23.04;101209.06;4916971;28;46338;-82
2022/05/22 03:13:33;;;;;;;;;4.00;4.00;;;;;35.17;22.67;101208.81;4916175;28;45593;-82
2022/05/22 03:15:59;;;;;;;;;6.00;4.67;;;;;35.01;23.07;101180.69;4916093;28;45332;-82
2022/05/22 03:18:24;;;;;;;;;3.67;3.67;;;;;35.00;22.77;101154.13;4917359;28;45368;-82
2022/05/22 03:20:50;;;;;;;;;5.33;4.00;;;;;35.01;22.62;101145.72;4916793;28;45585;-81
2022/05/22 03:23:16;;;;;;;;;4.00;4.00;;;;;35.35;22.91;101194.63;4915846;28;45789;-82
2022/05/22 03:25:43;;;;;;;;;4.33;4.00;;;;;35.00;22.59;101148.59;4917403;28;45381;-82
2022/05/22 03:28:09;;;;;;;;;4.67;4.67;;;;;34.97;22.76;101143.34;4915597;28;45488;-82
2022/05/22 03:30:34;;;;;;;;;5.33;4.33;;;;;34.90;22.96;101103.47;4915796;28;47047;-82
2022/05/22 03:32:59;;;;;;;;;4.33;4.33;;;;;35.19;22.61;101136.97;4915782;28;45449;-82
2022/05/22 03:35:25;;;;;;;;;5.33;5.00;;;;;35.24;22.83;101133.88;4916833;28;45399;-82
2022/05/22 03:37:50;;;;;;;;;6.00;5.00;;;;;35.35;22.92;101136.69;4917241;28;45614;-82
2022/05/22 03:40:15;;;;;;;;;5.67;5.00;;;;;35.11;22.63;101096.25;4916878;28;46322;-82
2022/05/22 03:42:41;;;;;;;;;0.00;0.00;;;;;35.15;22.95;101133.59;4915675;28;45850;-82
2022/05/22 03:45:08;;;;;;;;;5.67;4.67;;;;;35.03;22.45;101107.88;4915662;28;45398;-82
2022/05/22 03:47:33;;;;;;;;;4.00;4.00;;;;;34.86;22.79;101070.59;4915791;28;45398;-82
2022/05/22 03:50:04;;;;;;;;;4.67;4.67;;;;;35.40;22.48;101150.97;4915712;28;45415;-82
2022/05/22 03:52:40;;;;;;;;;4.00;4.00;;;;;35.08;22.68;101102.00;4916891;28;45495;-82
2022/05/22 03:55:08;;;;;;;;;5.00;5.00;;;;;35.43;22.77;101159.03;4916860;28;45447;-82
2022/05/22 03:57:34;;;;;;;;;7.00;5.00;;;;;35.32;22.45;101145.22;4916824;28;45341;-82
2022/05/22 04:00:04;;;;;;;;;6.33;6.00;;;;;35.42;22.90;101160.03;4915303;28;47212;-82
2022/05/22 04:02:30;;;;;;;;;5.67;5.00;;;;;35.21;22.51;101122.06;4916901;28;45510;-82
2022/05/22 04:04:55;;;;;;;;;7.00;6.00;;;;;35.04;22.96;101109.63;4916619;28;45455;-82
2022/05/22 04:07:21;;;;;;;;;4.00;4.00;;;;;34.98;23.16;101082.56;4915372;28;45510;-82
2022/05/22 04:09:46;;;;;;;;;5.67;5.67;;;;;35.11;22.65;101098.13;4916527;28;45472;-82
2022/05/22 04:12:13;;;;;;;;;5.00;5.00;;;;;35.21;22.66;101122.06;4915175;28;45435;-82
2022/05/22 04:14:39;;;;;;;;;5.33;5.33;;;;;35.33;22.70;101133.16;4916787;28;45392;-82
2022/05/22 04:17:04;;;;;;;;;7.00;6.00;;;;;35.25;22.54;101105.28;4915285;28;45539;-82
2022/05/22 04:19:31;;;;;;;;;6.00;6.00;;;;;35.22;22.93;101115.56;4916110;28;45250;-82
2022/05/22 04:21:57;;;;;;;;;7.67;6.00;;;;;35.03;22.82;101082.19;4916447;28;45482;-83
2022/05/22 04:27:07;;;;;;;;;7.33;6.00;;;;;35.06;22.68;101065.38;4916407;28;45392;-82
2022/05/22 04:29:33;;;;;;;;;7.00;6.00;;;;;35.38;22.56;101137.31;4916349;28;45433;-82
2022/05/22 04:31:59;;;;;;;;;7.67;5.00;;;;;35.01;22.72;101074.03;4914544;28;45484;-82
2022/05/22 04:34:24;;;;;;;;;6.67;5.67;;;;;34.94;22.46;101061.75;4916603;28;45355;-82
2022/05/22 04:36:50;;;;;;;;;4.00;4.00;;;;;35.41;22.56;101133.44;4915282;28;45424;-83
2022/05/22 04:39:15;;;;;;;;;4.00;4.00;;;;;35.24;22.19;101098.03;4915988;28;51882;-82
2022/05/22 04:41:40;;;;;;;;;5.00;5.00;;;;;35.20;22.29;101094.63;4916378;28;45524;-82
2022/05/22 04:44:06;;;;;;;;;6.00;4.00;;;;;35.22;22.51;101103.66;4916360;28;45449;-83
2022/05/22 04:46:32;;;;;;;;;4.00;4.00;;;;;35.03;22.38;101082.19;4916058;28;45351;-83
2022/05/22 04:48:57;;;;;;;;;5.00;5.00;;;;;35.04;22.71;101089.47;4914950;28;47909;-82
2022/05/22 04:51:23;;;;;;;;;6.00;6.00;;;;;35.19;22.53;101123.19;4916074;28;45429;-82
2022/05/22 04:53:50;;;;;;;;;5.00;4.00;;;;;35.05;22.54;101093.97;4915021;28;45475;-83
2022/05/22 04:56:15;;;;;;;;;5.00;4.00;;;;;35.06;22.16;101109.50;4916076;28;45379;-82
2022/05/22 04:58:41;;;;;;;;;6.00;6.00;;;;;35.06;22.48;101123.28;4915851;28;45476;-83
2022/05/22 05:01:07;;;;;;;;;5.00;5.00;;;;;34.95;22.40;101102.09;4915969;28;45475;-83
2022/05/22 05:03:34;;;;;;;;;7.00;7.00;;;;;34.64;22.72;101052.13;4914907;28;45389;-82
2022/05/22 05:05:59;;;;;;;;;4.67;4.67;;;;;34.79;22.97;101090.47;4916067;28;45460;-82
2022/05/22 05:08:27;;;;;;;;;5.00;5.00;;;;;34.94;22.62;101113.25;4914575;28;48207;-82
2022/05/22 05:10:52;;;;;;;;;6.00;6.00;;;;;34.52;22.70;101062.19;4914559;28;45347;-83
2022/05/22 05:13:19;;;;;;;;;5.33;5.33;;;;;34.77;22.50;101118.16;4914675;28;45573;-82
2022/05/22 05:15:45;;;;;;;;;5.00;5.00;;;;;34.76;22.56;101091.59;4914461;28;45583;-83
2022/05/22 05:18:11;;;;;;;;;7.33;5.00;;;;;34.81;22.49;101094.03;4915624;28;45674;-82
2022/05/22 05:20:38;;;;;;;;;6.33;5.67;;;;;34.73;22.50;101063.38;4914422;28;45888;-82
2022/05/22 05:23:04;;;;;;;;;8.00;5.67;;;;;35.14;22.54;101129.09;4915936;28;45447;-82
2022/05/22 05:25:30;;;;;;;;;7.33;5.00;;;;;35.07;22.90;101097.47;4915845;28;45499;-82
2022/05/22 05:27:55;;;;;;;;;6.33;5.00;;;;;35.08;22.70;101092.84;4915180;28;45619;-82
2022/05/22 05:30:21;;;;;;;;;5.00;5.00;;;;;34.97;22.87;101085.44;4913802;28;45485;-83
2022/05/22 05:32:52;;;;;;;;;5.33;5.33;;;;;35.14;22.43;101107.03;4915619;28;45316;-83
2022/05/22 05:35:18;;;;;;;;;6.67;6.33;;;;;34.81;22.74;101078.38;4915613;28;45454;-83
2022/05/22 05:37:43;;;;;;;;;9.33;6.00;;;;;34.81;22.59;101105.03;4914091;28;46537;-82
2022/05/22 05:40:09;;;;;;;;;6.00;6.00;;;;;35.06;22.85;101150.88;4914178;28;45812;-82
2022/05/22 05:42:36;;;;;;;;;5.00;5.00;;;;;34.45;22.42;101071.94;4915612;28;45440;-82
2022/05/22 05:45:07;;;;;;;;;4.00;4.00;;;;;34.74;22.99;101095.47;4913939;28;45397;-83
2022/05/22 05:47:33;;;;;;;;;6.67;5.00;;;;;34.78;22.75;101089.63;4914939;28;45799;-82
2022/05/22 05:49:59;;;;;;;;;5.00;4.67;;;;;34.99;22.73;101122.03;4915254;28;45449;-82
2022/05/22 05:52:24;;;;;;;;;4.33;4.00;;;;;34.60;22.68;101080.00;4915306;28;45571;-82
2022/05/22 05:54:50;;;;;;;;;4.67;3.33;;;;;34.83;22.48;101119.59;4915434;28;45413;-82
2022/05/22 05:57:16;;;;;;;;;4.67;4.67;;;;;34.84;22.67;101127.75;4945894;28;46942;-82
2022/05/22 05:59:42;;;;;;;;;4.00;4.00;;;;;34.65;23.23;101121.88;4913787;28;45505;-82
2022/05/22 06:02:15;;;;;;;;;4.33;4.33;;;;;34.71;22.55;101104.84;4915214;28;45367;-83
2022/05/22 06:04:41;;;;;;;;;5.00;4.00;;;;;34.76;22.72;101090.72;4945975;28;45312;-82
2022/05/22 06:07:07;;;;;;;;;5.67;5.67;;;;;35.02;22.02;101105.22;4914820;28;46377;-82
2022/05/22 06:09:32;;;;;;;;;5.00;5.00;;;;;34.99;22.98;101088.94;4913751;28;45337;-82
2022/05/22 06:11:58;;;;;;;;;4.00;4.00;;;;;35.21;22.55;101086.22;4913648;28;45235;-83
2022/05/22 06:14:23;;;;;;;;;3.00;3.00;;;;;35.38;22.26;101106.09;4916304;28;45672;-83
2022/05/22 06:16:50;;;;;;;;;4.00;4.00;;;;;35.51;22.49;101131.69;4917886;28;45495;-83
2022/05/22 06:19:53;;;;;;;;;4.00;4.00;;;;;35.54;22.40;101114.00;4948264;28;45443;-82
2022/05/22 06:22:01;;;;;;;;;5.00;3.33;;;;;35.49;21.95;101077.63;4917587;28;45266;-82
2022/05/22 06:24:26;;;;;;;;;4.67;4.67;;;;;35.32;22.02;101023.84;4917788;28;46287;-82
2022/05/22 06:26:52;;;;;;;;;6.00;5.00;;;;;35.43;22.28;101051.44;4917598;28;46131;-82
2022/05/22 06:29:18;;;;;;;;;6.00;5.00;;;;;35.58;22.17;101070.47;4917438;28;45423;-82
2022/05/22 06:31:43;;;;;;;;;4.00;4.00;;;;;35.30;22.12;101017.53;4948510;28;45447;-83
2022/05/22 06:34:09;;;;;;;;;4.00;4.00;;;;;35.74;22.35;101093.06;4916385;28;45495;-82
2022/05/22 06:36:34;;;;;;;;;7.00;5.00;;;;;35.35;22.10;101026.34;4917840;28;46670;-82
2022/05/22 06:41:43;;;;;;;;;3.67;3.67;;;;;35.47;22.40;101028.09;4917835;28;45519;-83
2022/05/22 06:44:08;;;;;;;;;4.67;4.67;;;;;35.36;22.26;100989.50;4948020;28;45638;-82
2022/05/22 06:46:34;;;;;;;;;3.00;3.00;;;;;35.44;22.05;100997.97;4948323;28;47170;-83
2022/05/22 06:48:59;;;;;;;;;5.00;3.00;;;;;35.86;22.27;101036.84;4948132;28;46352;-82
2022/05/22 06:51:25;;;;;;;;;3.33;3.00;;;;;35.83;22.38;101003.97;4916103;28;45507;-83
2022/05/22 06:53:50;;;;;;;;;4.00;4.00;;;;;36.14;21.72;101023.47;4916349;28;45484;-82
2022/05/22 06:56:16;;;;;;;;;2.67;2.00;;;;;36.16;21.73;101009.50;4917375;28;45486;-83
2022/05/22 06:58:41;;;;;;;;;3.00;3.00;;;;;36.15;21.72;100997.59;4915600;28;46577;-82
2022/05/22 07:01:06;;;;;;;;;5.00;3.33;;;;;36.19;21.79;100982.53;4917631;28;45376;-83
2022/05/22 07:03:34;;;;;;;;;3.67;3.00;;;;;36.42;21.66;101011.97;4916079;28;45623;-84
2022/05/22 07:06:00;;;;;;;;;3.67;3.67;;;;;36.47;21.42;101016.09;4916017;28;47393;-82
2022/05/22 07:08:27;;;;;;;;;2.33;2.00;;;;;36.64;21.40;101013.72;4916034;28;45460;-82
2022/05/22 07:13:36;;;;;;;;;3.00;3.00;;;;;36.69;21.06;101039.94;4916873;28;45379;-82
2022/05/22 07:16:04;;;;;;;;;4.00;4.00;;;;;36.88;21.07;101043.91;4915950;28;48225;-82
2022/05/22 07:18:30;;;;;;;;;4.00;2.33;;;;;37.00;20.88;101051.09;4915681;28;45454;-82
2022/05/22 07:20:56;;;;;;;;;3.00;2.33;;;;;36.77;20.55;100999.72;4916108;28;45417;-82
2022/05/22 07:23:22;;;;;;;;;4.00;3.00;;;;;36.88;20.59;101024.56;4915676;28;45551;-82
2022/05/22 07:25:47;;;;;;;;;3.00;3.00;;;;;37.05;20.88;101025.81;4915591;28;46600;-82
2022/05/22 07:28:13;;;;;;;;;3.00;3.00;;;;;37.21;20.52;101040.00;4915229;28;45345;-82
2022/05/22 07:30:39;;;;;;;;;3.00;3.00;;;;;37.07;20.82;101009.94;4917312;28;45444;-82
2022/05/22 07:33:04;;;;;;;;;3.00;3.00;;;;;37.02;20.58;100987.34;4917503;28;45333;-82
2022/05/22 07:35:30;;;;;;;;;4.00;1.00;;;;;37.00;20.79;100979.19;4917125;28;45415;-82
2022/05/22 07:37:56;;;;;;;;;3.00;3.00;;;;;37.14;20.19;100983.47;4917006;28;45245;-82
2022/05/22 07:40:21;;;;;;;;;1.67;1.67;;;;;37.11;20.89;100977.34;4916692;28;45267;-82
2022/05/22 07:42:47;;;;;;;;;3.00;3.00;;;;;37.13;20.90;100969.78;4917176;28;45230;-82
2022/05/22 07:45:15;;;;;;;;;3.33;2.00;;;;;37.30;20.38;101002.38;4915354;28;47512;-82
2022/05/22 07:47:41;;;;;;;;;3.00;2.00;;;;;37.42;20.85;101019.75;4916965;28;45518;-82
2022/05/22 07:50:16;;;;;;;;;5.00;3.00;;;;;37.41;20.55;101026.28;4915301;28;45451;-82
2022/05/22 07:52:43;;;;;;;;;2.67;2.00;;;;;37.33;20.10;101012.25;4916694;28;45249;-82
2022/05/22 07:55:14;;;;;;;;;2.00;2.00;;;;;37.15;20.21;101001.84;4914912;28;48455;-82
2022/05/22 07:57:44;;;;;;;;;2.00;2.00;;;;;37.12;19.96;101040.84;4916532;28;45428;-82
2022/05/22 08:00:15;;;;;;;;;3.00;2.00;;;;;37.10;20.24;101031.78;4915531;28;45347;-82
2022/05/22 08:02:41;;;;;;;;;3.67;3.00;;;;;37.39;20.73;101017.25;4916761;28;45355;-82
2022/05/22 08:05:08;;;;;;;;;2.33;2.33;;;;;37.38;20.18;100985.06;4916510;28;45428;-82
2022/05/22 08:07:35;;;;;;;;;2.00;2.00;;;;;37.70;19.76;101000.59;4914992;28;45568;-82
2022/05/22 08:10:01;;;;;;;;;2.00;2.00;;;;;37.78;20.52;100994.38;4916489;28;45388;-82
2022/05/22 08:12:26;;;;;;;;;1.67;1.67;;;;;37.64;19.73;100970.69;4916464;28;45481;-82
2022/05/22 08:14:52;;;;;;;;;2.00;2.00;;;;;37.75;20.05;100982.56;4916410;28;45379;-82
2022/05/22 08:17:21;;;;;;;;;2.00;2.00;;;;;37.98;19.36;101009.16;4916370;28;45508;-82
2022/05/22 08:19:49;;;;;;;;;2.67;2.00;;;;;37.75;19.25;100976.16;4916254;28;45394;-82
2022/05/22 08:22:16;;;;;;;;;2.00;2.00;;;;;37.61;19.58;100932.25;4915211;28;45518;-82
2022/05/22 08:24:41;;;;;;;;;2.00;2.00;;;;;37.68;19.86;100934.31;4914663;28;47071;-82
2022/05/22 08:27:07;;;;;;;;;2.00;2.00;;;;;37.75;19.76;100921.66;4914925;28;45478;-82
2022/05/22 08:29:32;;;;;;;;;1.00;1.00;;;;;37.80;19.26;100888.00;4915021;28;45647;-82
2022/05/22 08:31:57;;;;;;;;;4.00;2.00;;;;;38.07;19.00;100944.53;4916349;28;45459;-82
2022/05/22 08:34:23;;;;;;;;;3.00;2.00;;;;;38.01;19.09;100903.59;4916223;28;45614;-83
2022/05/22 08:36:51;;;;;;;;;2.33;1.00;;;;;38.23;19.19;100932.94;4915917;28;45477;-82
2022/05/22 08:39:17;;;;;;;;;4.00;2.00;;;;;38.47;19.40;100960.16;4914778;28;45416;-82
2022/05/22 08:41:53;;;;;;;;;2.00;2.00;;;;;38.54;19.10;100954.88;4916443;28;45314;-82
2022/05/22 08:44:22;;;;;;;;;2.00;2.00;;;;;38.63;19.11;100972.53;4915981;28;45515;-82
2022/05/22 08:47:17;;;;;;;;;2.00;2.00;;;;;38.71;18.86;100969.94;4916170;28;45524;-82
2022/05/22 08:49:57;;;;;;;;;4.00;3.00;;;;;38.69;19.11;100928.47;4915981;28;45438;-82
2022/05/22 08:52:35;;;;;;;;;1.67;1.67;;;;;38.92;18.52;100941.97;4914760;28;45445;-82
2022/05/22 08:55:13;;;;;;;;;2.00;2.00;;;;;38.58;18.68;100882.38;4914457;28;47668;-82
2022/05/22 09:01:12;;;;;;;;;3.00;2.00;;;;;39.12;18.68;100937.22;4915989;28;45482;-82
2022/05/22 09:03:52;;;;;;;;;2.00;2.00;;;;;38.87;18.52;100883.31;4915878;28;45617;-83
2022/05/22 09:06:26;;;;;;;;;3.67;2.67;;;;;39.24;18.81;100958.22;4914609;28;47619;-82
2022/05/22 09:08:52;;;;;;;;;4.00;3.00;;;;;38.93;18.58;100916.88;4915542;28;45511;-83
2022/05/22 09:12:03;;;;;;;;;2.00;2.00;;;;;39.28;18.30;100968.00;4915863;28;45354;-84
2022/05/22 09:14:53;;;;;;;;;2.00;2.00;;;;;39.34;18.79;100962.84;4915991;28;45489;-84
2022/05/22 09:17:24;;;;;;;;;2.00;2.00;;;;;39.41;18.03;100959.31;4915571;28;45705;-84
2022/05/22 09:20:00;;;;;;;;;2.00;2.00;;;;;39.17;18.18;100918.25;4915759;28;45422;-84
2022/05/22 09:22:50;;;;;;;;;2.00;2.00;;;;;39.57;18.29;100947.50;4914495;28;45454;-84
2022/05/22 09:25:42;;;;;;;;;1.00;1.00;;;;;39.67;18.66;100946.63;4914701;28;45480;-84
2022/05/22 09:28:31;;;;;;;;;5.00;3.33;;;;;39.66;18.58;100936.53;4915478;28;45574;-84
2022/05/22 09:31:11;;;;;;;;;3.00;2.00;;;;;39.73;18.28;100941.28;4915647;28;45310;-84
2022/05/22 09:33:45;;;;;;;;;2.00;2.00;;;;;39.80;17.96;100935.97;4915810;28;45368;-84
2022/05/22 09:36:19;;;;;;;;;2.00;2.00;;;;;39.68;17.79;100909.47;4915856;28;45463;-84
2022/05/22 09:39:02;;;;;;;;;3.00;3.00;;;;;39.74;17.63;100923.59;4914236;28;46766;-84
2022/05/22 09:42:02;;;;;;;;;6.00;2.33;;;;;39.79;17.98;100929.56;4915585;28;45461;-84
2022/05/22 09:44:36;;;;;;;;;2.33;2.33;;;;;39.70;17.61;100919.38;4915825;28;45328;-84
2022/05/22 09:47:29;;;;;;;;;1.67;1.67;;;;;39.81;17.81;100939.66;4914409;28;45430;-84
2022/05/22 09:50:12;;;;;;;;;2.00;2.00;;;;;39.73;17.72;100927.38;4913920;28;48448;-84
2022/05/22 09:53:10;;;;;;;;;3.00;3.00;;;;;39.73;18.03;100919.06;4915554;28;45356;-84
2022/05/22 09:55:38;;;;;;;;;4.00;3.00;;;;;39.70;17.86;100918.53;4915531;28;45580;-84
2022/05/22 09:58:24;;;;;;;;;2.00;2.00;;;;;39.60;17.43;100911.13;4914235;28;45452;-83
2022/05/22 10:01:12;;;;;;;;;1.33;1.33;;;;;39.45;17.80;100904.31;4913932;28;48193;-84
2022/05/22 10:04:15;;;;;;;;;2.00;2.00;;;;;39.37;17.72;100902.34;4913898;28;45274;-84
2022/05/22 10:07:06;;;;;;;;;3.00;2.00;;;;;39.28;17.75;100889.41;4913619;28;45269;-84
2022/05/22 10:09:31;;;;;;;;;1.67;1.67;;;;;39.17;17.82;100881.28;4915353;28;45419;-84
2022/05/22 10:12:21;;;;;;;;;1.67;1.33;;;;;39.15;17.30;100873.13;4913580;28;48329;-83
2022/05/22 10:14:52;;;;;;;;;2.67;1.00;;;;;39.05;17.82;100855.63;4914868;28;45535;-84
2022/05/22 10:17:23;;;;;;;;;3.00;2.00;;;;;38.69;17.51;100794.50;4915126;28;45220;-84
2022/05/22 10:20:25;;;;;;;;;2.33;2.00;;;;;39.05;17.74;100839.84;4913632;28;45353;-84
2022/05/22 10:23:01;;;;;;;;;3.00;2.00;;;;;39.09;17.88;100843.19;4913359;28;47398;-84
2022/05/22 10:26:01;;;;;;;;;2.00;2.00;;;;;39.10;17.77;100845.81;4914611;28;45290;-84
2022/05/22 10:28:39;;;;;;;;;2.67;2.67;;;;;39.16;18.18;100822.16;4927198;28;45612;-84
2022/05/22 10:31:12;;;;;;;;;6.00;4.00;;;;;39.33;18.66;100839.00;4915086;28;45521;-84
2022/05/22 10:33:43;;;;;;;;;7.00;6.00;;;;;39.30;18.51;100837.41;4913497;28;46399;-84
2022/05/22 10:36:13;;;;;;;;;5.00;5.00;;;;;39.36;18.41;100830.34;4914569;28;45412;-84
2022/05/22 10:38:45;;;;;;;;;4.67;4.67;;;;;39.35;18.95;100837.78;4914859;28;45178;-83
2022/05/22 10:44:07;;;;;;;;;5.33;5.33;;;;;39.27;18.87;100796.06;4914584;28;45395;-84
2022/05/22 10:46:54;;;;;;;;;4.00;4.00;;;;;39.20;18.79;100784.75;4914551;28;45519;-84
2022/05/22 10:49:24;;;;;;;;;6.33;5.67;;;;;39.24;19.22;100782.50;4914390;28;45346;-84
2022/05/22 10:51:59;;;;;;;;;4.00;3.00;;;;;39.03;18.87;100772.56;4913142;28;45451;-83
2022/05/22 10:54:29;;;;;;;;;7.00;4.00;;;;;39.11;19.14;100777.31;4914540;28;46155;-84
2022/05/22 10:57:07;;;;;;;;;5.00;4.67;;;;;39.10;18.96;100773.69;4914476;28;45312;-83
2022/05/22 10:59:32;;;;;;;;;4.00;3.67;;;;;38.81;19.00;100751.69;4915155;28;45415;-84
2022/05/22 11:02:00;;;;;;;;;3.33;3.00;;;;;38.87;18.95;100739.94;4916160;28;45514;-84
2022/05/22 11:04:37;;;;;;;;;3.00;3.00;;;;;39.00;18.75;100747.03;4915938;28;47997;-84
2022/05/22 11:07:04;;;;;;;;;2.00;2.00;;;;;38.58;18.94;100679.09;4916365;28;45676;-84
2022/05/22 11:09:33;;;;;;;;;3.00;2.33;;;;;38.80;19.00;100713.88;4916348;28;45503;-84
2022/05/22 11:12:11;;;;;;;;;4.00;2.33;;;;;38.58;18.89;100666.13;4917485;28;45346;-83
2022/05/22 11:14:39;;;;;;;;;4.33;4.00;;;;;38.82;18.99;100714.63;4916908;28;47029;-83
2022/05/22 11:17:14;;;;;;;;;4.00;3.00;;;;;38.85;19.57;100727.25;4916203;28;45453;-84
2022/05/22 11:19:42;;;;;;;;;3.00;3.00;;;;;38.76;19.68;100706.91;4915988;28;45342;-84
2022/05/22 11:22:37;;;;;;;;;2.00;2.00;;;;;38.80;19.50;100729.66;4916069;28;45333;-85
2022/05/22 11:25:18;;;;;;;;;3.00;3.00;;;;;38.82;19.40;100758.97;4915946;28;45737;-84
2022/05/22 11:27:49;;;;;;;;;6.33;5.00;;;;;38.85;19.70;100778.06;4917047;28;45388;-84
2022/05/22 11:30:43;;;;;;;;;4.33;4.33;;;;;38.83;20.07;100754.28;4917503;28;45431;-84
2022/05/22 11:33:28;;;;;;;;;3.67;2.33;;;;;39.06;20.20;100766.69;4915695;28;45532;-84
2022/05/22 11:36:09;;;;;;;;;4.00;4.00;;;;;39.16;19.87;100757.44;4915621;28;48249;-84
2022/05/22 11:38:53;;;;;;;;;4.00;4.00;;;;;39.20;20.09;100740.34;4915751;28;45314;-84
2022/05/22 11:41:57;;;;;;;;;5.00;4.00;;;;;39.09;19.76;100744.19;4915963;28;45381;-84
2022/05/22 11:45:00;;;;;;;;;4.00;3.00;;;;;39.03;19.51;100727.28;4956325;28;45457;-83
2022/05/22 11:47:46;;;;;;;;;3.00;3.00;;;;;39.00;19.11;100745.13;4917104;28;45953;-84
2022/05/22 11:50:37;;;;;;;;;6.00;5.00;;;;;39.05;19.67;100744.66;4928326;28;46143;-84
2022/05/22 11:53:26;;;;;;;;;3.00;3.00;;;;;38.99;19.06;100731.41;4936984;28;45438;-84
2022/05/22 11:56:12;;;;;;;;;3.67;3.67;;;;;38.98;18.71;100722.22;4936870;28;45474;-83
2022/05/22 11:59:07;;;;;;;;;5.00;3.67;;;;;38.86;19.29;100691.09;4936382;28;45565;-84
2022/05/22 12:01:33;;;;;;;;;4.33;4.33;;;;;39.01;19.27;100715.50;4936211;28;45466;-84